Time;durP1;ratioP1;P1;durP2;ratioP2;P2;SDS_P1;SDS_P2;PMS_P1;PMS_P2;Temp;Humidity;BMP_temperature;BMP_pressure;BME280_temperature;BME280_humidity;BME280_pressure;Samples;Min_cycle;Max_cycle;Signal;HPM_P1;HPM_P2
2024/01/20 00:00:02;;;;;;;577.28;536.80;;;1.00;99.90;;;;;;4983996;28;20050;-78
2024/01/20 00:02:28;;;;;;;553.40;515.58;;;0.70;99.90;;;;;;4983549;28;20153;-79
2024/01/20 00:04:54;;;;;;;559.80;521.20;;;0.70;99.90;;;;;;4971629;28;20133;-79
2024/01/20 00:07:20;;;;;;;657.40;608.80;;;1.40;99.90;;;;;;4986179;28;20421;-79
2024/01/20 00:09:45;;;;;;;572.70;532.58;;;1.00;99.90;;;;;;4982912;28;20521;-79
2024/01/20 00:12:11;;;;;;;551.90;513.22;;;0.60;99.90;;;;;;4984008;28;20129;-78
2024/01/20 00:14:37;;;;;;;673.72;623.85;;;0.60;99.90;;;;;;4983665;28;20054;-79
2024/01/20 00:17:03;;;;;;;571.90;531.58;;;0.80;99.90;;;;;;4986641;28;20054;-79
2024/01/20 00:19:29;;;;;;;565.45;525.90;;;0.50;99.90;;;;;;4973802;28;20055;-79
2024/01/20 00:21:54;;;;;;;778.47;718.58;;;1.10;99.90;;;;;;5006262;28;20117;-79
2024/01/20 00:24:20;;;;;;;723.72;669.53;;;0.70;99.90;;;;;;5006916;28;20496;-79
2024/01/20 00:26:46;;;;;;;852.50;783.80;;;0.50;99.90;;;;;;5006258;28;20159;-79
2024/01/20 00:29:11;;;;;;;705.30;652.60;;;1.00;99.90;;;;;;5005755;28;20057;-79
2024/01/20 00:31:37;;;;;;;662.60;613.05;;;1.10;99.90;;;;;;5005162;28;20038;-78
2024/01/20 00:34:03;;;;;;;618.92;574.10;;;1.40;99.90;;;;;;5006535;28;20874;-79
2024/01/20 00:36:28;;;;;;;871.53;800.83;;;0.70;99.90;;;;;;4977462;28;20100;-79
2024/01/20 00:38:54;;;;;;;868.33;798.17;;;1.60;99.90;;;;;;5004147;28;20385;-80
2024/01/20 00:41:20;;;;;;;939.35;856.90;;;1.80;99.90;;;;;;5004225;28;20046;-79
2024/01/20 00:43:45;;;;;;;829.03;763.30;;;1.20;99.90;;;;;;5005195;28;20125;-79
2024/01/20 00:46:11;;;;;;;857.10;788.47;;;1.50;99.90;;;;;;4987131;28;20103;-79
2024/01/20 00:48:37;;;;;;;928.80;849.97;;;1.10;99.90;;;;;;5005441;28;20042;-79
2024/01/20 00:51:03;;;;;;;836.28;769.88;;;1.40;99.90;;;;;;5021419;28;20038;-79
2024/01/20 00:53:28;;;;;;;984.72;895.20;;;0.40;99.90;;;;;;5003447;28;20054;-79
2024/01/20 00:55:54;;;;;;;967.92;878.78;;;0.90;99.90;;;;;;4992938;28;20075;-79
2024/01/20 00:58:20;;;;;;;966.40;877.33;;;1.50;99.90;;;;;;5025510;28;20124;-79
2024/01/20 01:00:45;;;;;;;936.10;857.03;;;0.40;99.90;;;;;;4989689;28;20128;-79
2024/01/20 01:03:11;;;;;;;960.05;875.53;;;0.90;99.90;;;;;;5024666;28;20485;-79
2024/01/20 01:05:37;;;;;;;973.67;887.10;;;0.40;99.90;;;;;;4974879;28;20050;-79
2024/01/20 01:08:03;;;;;;;949.22;867.50;;;0.40;99.90;;;;;;4966894;28;20106;-78
2024/01/20 01:10:28;;;;;;;975.30;889.13;;;0.40;99.90;;;;;;4986818;28;20054;-79
2024/01/20 01:12:54;;;;;;;961.80;878.15;;;0.30;99.90;;;;;;4986555;28;20050;-79
2024/01/20 01:15:20;;;;;;;967.35;884.10;;;0.40;99.90;;;;;;4986023;28;20054;-79
2024/01/20 01:17:45;;;;;;;955.72;873.22;;;0.40;99.90;;;;;;4986635;28;20405;-79
2024/01/20 01:20:11;;;;;;;963.33;876.42;;;0.40;99.90;;;;;;4986478;28;20038;-79
2024/01/20 01:22:37;;;;;;;959.58;874.78;;;0.30;99.90;;;;;;4986190;28;20483;-79
2024/01/20 01:25:03;;;;;;;982.70;894.08;;;1.40;99.90;;;;;;4988149;28;20046;-79
2024/01/20 01:27:29;;;;;;;964.78;880.97;;;0.30;99.90;;;;;;4985573;28;20551;-79
2024/01/20 01:29:55;;;;;;;980.72;892.70;;;0.90;99.90;;;;;;4991537;28;20052;-79
2024/01/20 01:32:22;;;;;;;1047.07;947.47;;;1.20;99.90;;;;;;5035211;28;20580;-79
2024/01/20 01:34:47;;;;;;;1084.65;973.55;;;0.30;99.90;;;;;;4991611;28;20138;-78
2024/01/20 01:37:13;;;;;;;1048.80;951.22;;;1.30;99.90;;;;;;4985257;28;20048;-79
2024/01/20 01:39:41;;;;;;;1034.60;938.58;;;1.50;99.90;;;;;;4984622;28;20050;-78
2024/01/20 01:42:07;;;;;;;991.88;903.05;;;1.20;99.90;;;;;;4985474;28;20043;-79
2024/01/20 01:44:32;;;;;;;1039.82;938.83;;;1.00;99.90;;;;;;4985898;28;20053;-78
2024/01/20 01:46:58;;;;;;;988.60;899.00;;;1.40;99.90;;;;;;4985470;28;20047;-78
2024/01/20 01:49:24;;;;;;;987.05;900.17;;;1.40;99.90;;;;;;5002135;28;20156;-79
2024/01/20 01:51:51;;;;;;;991.65;900.30;;;1.70;99.90;;;;;;5002103;28;20130;-79
2024/01/20 01:54:18;;;;;;;957.55;873.22;;;0.80;99.90;;;;;;4968750;28;20089;-79
2024/01/20 01:56:47;;;;;;;871.40;800.03;;;1.90;99.90;;;;;;5049086;28;20086;-79
2024/01/20 01:59:14;;;;;;;825.83;759.67;;;1.10;99.90;;;;;;4985754;28;20060;-79
2024/01/20 02:01:40;;;;;;;712.28;658.92;;;1.40;99.90;;;;;;4985235;28;20046;-79
2024/01/20 02:04:06;;;;;;;698.13;647.10;;;1.20;99.90;;;;;;4986449;28;20149;-79
2024/01/20 02:06:32;;;;;;;718.47;665.15;;;1.30;99.90;;;;;;4987012;28;20664;-79
2024/01/20 02:08:59;;;;;;;815.45;751.03;;;0.50;99.90;;;;;;4984645;28;20486;-79
2024/01/20 02:11:25;;;;;;;915.05;839.03;;;1.30;99.90;;;;;;4984711;28;20477;-79
2024/01/20 02:13:51;;;;;;;756.72;698.42;;;0.60;99.90;;;;;;4969480;28;20063;-79
2024/01/20 02:16:17;;;;;;;898.97;823.47;;;0.50;99.90;;;;;;4991554;28;20049;-79
2024/01/20 02:18:42;;;;;;;697.97;646.08;;;1.10;99.90;;;;;;5003064;28;20138;-79
2024/01/20 02:21:08;;;;;;;639.80;593.05;;;1.20;99.90;;;;;;5004369;28;20049;-79
2024/01/20 02:23:38;;;;;;;627.10;581.70;;;0.50;99.90;;;;;;5002346;28;20052;-79
2024/01/20 02:26:03;;;;;;;839.15;772.08;;;1.50;99.90;;;;;;4984584;28;20518;-79
2024/01/20 02:28:29;;;;;;;652.78;604.40;;;0.50;99.90;;;;;;4984359;28;20050;-79
2024/01/20 02:30:55;;;;;;;609.28;565.08;;;1.20;99.90;;;;;;4992797;28;20045;-79
2024/01/20 02:33:20;;;;;;;697.78;646.25;;;1.70;99.90;;;;;;5003899;28;20049;-79
2024/01/20 02:35:46;;;;;;;645.45;598.08;;;1.10;99.90;;;;;;5002593;28;20405;-79
2024/01/20 02:38:12;;;;;;;623.10;577.70;;;1.50;99.90;;;;;;5003809;28;20045;-79
2024/01/20 02:40:37;;;;;;;631.17;585.00;;;0.50;99.90;;;;;;5003006;28;20438;-79
2024/01/20 02:43:03;;;;;;;655.40;606.85;;;1.00;99.90;;;;;;5002660;28;20093;-79
2024/01/20 02:45:29;;;;;;;613.33;568.72;;;1.60;99.90;;;;;;4984847;28;20054;-79
2024/01/20 02:47:54;;;;;;;807.05;744.92;;;1.20;99.90;;;;;;4986968;28;20462;-79
2024/01/20 02:50:21;;;;;;;771.05;712.15;;;1.50;99.90;;;;;;4992004;28;20053;-79
2024/01/20 02:52:46;;;;;;;859.75;790.70;;;0.90;99.90;;;;;;4991824;28;20095;-79
2024/01/20 02:55:12;;;;;;;889.42;817.95;;;1.10;99.90;;;;;;5035611;28;20053;-79
2024/01/20 02:57:37;;;;;;;908.78;833.78;;;1.20;99.90;;;;;;5002310;28;20042;-79
2024/01/20 03:00:07;;;;;;;836.60;770.72;;;0.90;99.90;;;;;;4990899;28;20074;-78
2024/01/20 03:02:32;;;;;;;661.80;613.05;;;0.10;99.90;;;;;;5003613;28;20046;-79
2024/01/20 03:05:00;;;;;;;909.65;833.70;;;0.50;99.90;;;;;;5003205;28;20498;-78
2024/01/20 03:07:26;;;;;;;718.25;664.75;;;0.70;99.90;;;;;;5003563;28;20046;-79
2024/01/20 03:09:51;;;;;;;796.17;734.40;;;1.00;99.90;;;;;;4989296;28;20055;-79
2024/01/20 03:12:17;;;;;;;869.40;800.03;;;0.10;99.90;;;;;;5003572;28;20046;-78
2024/01/20 03:14:43;;;;;;;820.25;756.88;;;0.10;99.90;;;;;;4996773;28;20940;-78
2024/01/20 03:17:09;;;;;;;723.80;669.90;;;0.70;99.90;;;;;;4995734;28;20129;-78
2024/01/20 03:19:34;;;;;;;761.97;704.50;;;0.60;99.90;;;;;;5034867;28;20052;-78
2024/01/20 03:22:00;;;;;;;755.45;697.28;;;-0.10;99.90;;;;;;5002579;28;20118;-79
2024/01/20 03:24:26;;;;;;;869.83;799.55;;;0.00;99.90;;;;;;5000701;28;20565;-78
2024/01/20 03:26:54;;;;;;;760.97;702.65;;;1.10;99.90;;;;;;5035756;28;20046;-78
2024/01/20 03:29:21;;;;;;;811.28;746.17;;;0.60;99.90;;;;;;5002128;28;20128;-79
2024/01/20 03:31:47;;;;;;;941.58;860.35;;;1.00;99.90;;;;;;4998938;28;20038;-78
2024/01/20 03:34:12;;;;;;;977.92;890.55;;;0.30;99.90;;;;;;4983573;28;20053;-78
2024/01/20 03:36:38;;;;;;;994.53;905.72;;;0.80;99.90;;;;;;4983769;28;20155;-78
2024/01/20 03:39:04;;;;;;;1028.43;930.70;;;-0.10;99.90;;;;;;4983444;28;20088;-79
2024/01/20 03:41:29;;;;;;;1010.35;916.88;;;-0.10;99.90;;;;;;4983545;28;20057;-79
2024/01/20 03:43:56;;;;;;;993.50;901.72;;;0.80;99.90;;;;;;4987363;28;20132;-78
2024/01/20 03:46:23;;;;;;;1045.45;945.00;;;0.90;99.90;;;;;;5002627;28;20045;-78
2024/01/20 03:48:49;;;;;;;1020.92;924.97;;;0.60;99.90;;;;;;5001941;28;20049;-78
2024/01/20 03:51:14;;;;;;;1037.03;938.10;;;0.80;99.90;;;;;;5001858;28;20519;-78
2024/01/20 03:53:40;;;;;;;1057.00;955.78;;;0.10;99.90;;;;;;4984981;28;20106;-78
2024/01/20 03:56:06;;;;;;;1032.90;936.05;;;0.50;99.90;;;;;;4986573;28;20486;-78
2024/01/20 03:58:31;;;;;;;1026.10;929.85;;;0.40;99.90;;;;;;5003628;28;20043;-78
2024/01/20 04:00:57;;;;;;;1029.63;931.92;;;-0.30;99.90;;;;;;4991201;28;20490;-78
2024/01/20 04:03:23;;;;;;;1001.63;910.10;;;-0.30;99.90;;;;;;5015232;28;20103;-78
2024/01/20 04:05:48;;;;;;;1041.35;942.50;;;0.30;99.90;;;;;;5035695;28;20046;-78
2024/01/20 04:08:14;;;;;;;996.92;905.05;;;-0.30;99.90;;;;;;5021475;28;20057;-78
2024/01/20 04:10:40;;;;;;;1027.57;927.65;;;-0.30;99.90;;;;;;5030015;28;20133;-78
2024/01/20 04:13:06;;;;;;;1067.15;963.65;;;0.30;99.90;;;;;;4983716;28;20053;-79
2024/01/20 04:15:32;;;;;;;1026.70;929.47;;;0.20;99.90;;;;;;4982965;28;20046;-78
2024/01/20 04:17:57;;;;;;;1053.00;949.10;;;0.50;99.90;;;;;;5012153;28;20053;-78
2024/01/20 04:20:23;;;;;;;1021.80;926.05;;;0.20;99.90;;;;;;4985745;28;20035;-78
2024/01/20 04:22:49;;;;;;;1010.05;914.55;;;0.70;99.90;;;;;;4984734;28;20536;-79
2024/01/20 04:25:16;;;;;;;1044.43;944.47;;;1.00;99.90;;;;;;4962879;28;20063;-78
2024/01/20 04:27:41;;;;;;;1074.85;966.65;;;-0.30;99.90;;;;;;4988448;28;20069;-78
2024/01/20 04:30:09;;;;;;;1026.05;929.15;;;0.30;99.90;;;;;;4995682;28;20042;-78
2024/01/20 04:32:36;;;;;;;1044.63;945.22;;;-0.30;99.90;;;;;;4995688;28;20049;-78
2024/01/20 04:35:02;;;;;;;1005.28;910.03;;;-0.10;99.90;;;;;;4983465;28;20152;-78
2024/01/20 04:37:28;;;;;;;1043.43;941.85;;;0.50;99.90;;;;;;4983554;28;20053;-78
2024/01/20 04:39:54;;;;;;;1014.83;918.90;;;0.40;99.90;;;;;;4982192;28;20050;-78
2024/01/20 04:42:20;;;;;;;1037.38;939.03;;;0.40;99.90;;;;;;4985734;28;20046;-78
2024/01/20 04:44:45;;;;;;;1039.70;940.55;;;0.50;99.90;;;;;;4983490;28;20073;-78
2024/01/20 04:47:11;;;;;;;1002.92;909.22;;;0.00;99.90;;;;;;4984116;28;20049;-79
2024/01/20 04:49:37;;;;;;;1006.13;915.92;;;-0.30;99.90;;;;;;4984845;28;20039;-78
2024/01/20 04:52:03;;;;;;;984.22;895.28;;;0.70;99.90;;;;;;5015613;28;20134;-78
2024/01/20 04:54:28;;;;;;;1021.90;923.85;;;-0.30;99.90;;;;;;4982303;28;20126;-78
2024/01/20 04:56:56;;;;;;;1011.67;918.83;;;0.40;99.90;;;;;;4983986;28;20524;-78
2024/01/20 04:59:22;;;;;;;1003.58;913.10;;;0.90;99.90;;;;;;4983943;28;20046;-78
2024/01/20 05:01:48;;;;;;;1012.35;917.15;;;0.60;99.90;;;;;;4994818;28;20062;-78
2024/01/20 05:04:14;;;;;;;1004.88;912.35;;;0.00;99.90;;;;;;4985878;28;20042;-78
2024/01/20 05:06:40;;;;;;;998.30;904.80;;;0.50;99.90;;;;;;4986673;28;20099;-78
2024/01/20 05:09:06;;;;;;;985.42;896.60;;;0.20;99.90;;;;;;4986309;28;20075;-78
2024/01/20 05:11:31;;;;;;;1003.55;908.53;;;0.20;99.90;;;;;;4986348;28;20437;-78
2024/01/20 05:13:57;;;;;;;988.05;898.45;;;0.90;99.90;;;;;;4987624;28;20062;-78
2024/01/20 05:16:23;;;;;;;997.13;906.35;;;0.80;99.90;;;;;;4986106;28;20393;-78
2024/01/20 05:18:48;;;;;;;1020.05;925.05;;;0.20;99.90;;;;;;4987064;28;20043;-78
2024/01/20 05:21:15;;;;;;;1007.65;914.60;;;-0.20;99.90;;;;;;4986447;28;20038;-78
2024/01/20 05:23:41;;;;;;;997.80;906.20;;;0.80;99.90;;;;;;4986899;28;20054;-78
2024/01/20 05:26:06;;;;;;;1034.40;935.78;;;0.00;99.90;;;;;;5006513;28;20060;-78
2024/01/20 05:28:32;;;;;;;983.92;893.35;;;-0.10;99.90;;;;;;4990836;28;20050;-78
2024/01/20 05:30:58;;;;;;;1018.00;922.85;;;0.50;99.90;;;;;;4987924;28;20058;-78
2024/01/20 05:33:23;;;;;;;989.80;900.03;;;0.10;99.90;;;;;;5026636;28;20496;-78
2024/01/20 05:35:49;;;;;;;1046.45;946.35;;;0.20;99.90;;;;;;4997827;28;20115;-78
2024/01/20 05:38:15;;;;;;;964.60;877.17;;;0.00;99.90;;;;;;4994646;28;20090;-78
2024/01/20 05:40:41;;;;;;;994.65;902.47;;;0.10;99.90;;;;;;4987160;28;20046;-78
2024/01/20 05:43:06;;;;;;;1033.70;935.45;;;0.30;99.90;;;;;;4966176;28;20482;-78
2024/01/20 05:45:32;;;;;;;986.28;898.00;;;0.70;99.90;;;;;;4983400;28;20031;-78
2024/01/20 05:47:58;;;;;;;965.35;880.63;;;-0.50;99.90;;;;;;4985850;28;20477;-78
2024/01/20 05:50:24;;;;;;;960.75;875.63;;;0.80;99.90;;;;;;4986642;28;20034;-78
2024/01/20 05:52:50;;;;;;;948.92;866.08;;;-0.60;99.90;;;;;;4985252;28;20689;-78
2024/01/20 05:55:17;;;;;;;983.53;895.28;;;0.70;99.90;;;;;;4985229;28;20042;-78
2024/01/20 05:57:42;;;;;;;993.00;902.30;;;0.40;99.90;;;;;;4987358;28;20125;-78
2024/01/20 06:00:09;;;;;;;948.63;865.47;;;0.60;99.90;;;;;;4985557;28;20146;-79
2024/01/20 06:02:36;;;;;;;985.38;897.38;;;-0.60;99.90;;;;;;4984996;28;20563;-78
2024/01/20 06:05:02;;;;;;;969.13;882.25;;;0.00;99.90;;;;;;4985282;28;20078;-78
2024/01/20 06:07:28;;;;;;;1020.65;923.38;;;-0.70;99.90;;;;;;4985500;28;20096;-78
2024/01/20 06:09:54;;;;;;;984.20;893.88;;;0.50;99.90;;;;;;4984317;28;20146;-78
2024/01/20 06:12:19;;;;;;;988.88;898.83;;;-0.70;99.90;;;;;;4985996;28;20047;-78
2024/01/20 06:14:45;;;;;;;959.70;875.35;;;0.50;99.90;;;;;;4984543;28;20046;-78
2024/01/20 06:17:11;;;;;;;970.00;882.42;;;-0.80;99.90;;;;;;5023728;28;20056;-78
2024/01/20 06:19:37;;;;;;;992.85;903.45;;;0.20;99.90;;;;;;4999804;28;20047;-78
2024/01/20 06:22:02;;;;;;;983.90;894.10;;;0.50;99.90;;;;;;4996183;28;20054;-78
2024/01/20 06:24:30;;;;;;;973.13;886.67;;;-0.80;99.90;;;;;;4979241;28;20047;-78
2024/01/20 06:26:56;;;;;;;988.40;897.25;;;0.10;99.90;;;;;;5004992;28;20136;-78
2024/01/20 06:29:21;;;;;;;966.38;880.70;;;0.00;99.90;;;;;;5036687;28;20149;-78
2024/01/20 06:31:47;;;;;;;962.00;876.28;;;-0.80;99.90;;;;;;4987821;28;20057;-78
2024/01/20 06:34:13;;;;;;;941.33;859.55;;;0.00;99.90;;;;;;5004951;28;20080;-78
2024/01/20 06:36:39;;;;;;;1020.03;924.40;;;0.20;99.90;;;;;;4999211;28;20057;-78
2024/01/20 06:39:04;;;;;;;948.53;864.65;;;-0.10;99.90;;;;;;5004264;28;20042;-76
2024/01/20 06:41:31;;;;;;;953.47;870.22;;;-0.40;99.90;;;;;;4999076;28;20067;-76
2024/01/20 06:43:57;;;;;;;968.28;882.10;;;0.00;99.90;;;;;;4974306;28;20058;-76
2024/01/20 06:46:23;;;;;;;943.17;860.45;;;0.30;99.90;;;;;;4977035;28;20111;-75
2024/01/20 06:48:50;;;;;;;934.60;854.72;;;-0.90;99.90;;;;;;5021099;28;20054;-76
2024/01/20 06:51:16;;;;;;;1009.58;914.63;;;-0.90;99.90;;;;;;5002275;28;20053;-76
2024/01/20 06:53:43;;;;;;;920.88;842.40;;;-0.60;99.90;;;;;;5017489;28;20049;-76
2024/01/20 06:56:09;;;;;;;1017.33;923.03;;;-0.40;99.90;;;;;;4986460;28;20061;-77
2024/01/20 06:58:35;;;;;;;990.35;901.05;;;0.20;99.90;;;;;;4995784;28;20050;-77
2024/01/20 07:01:01;;;;;;;914.85;836.05;;;-0.10;99.90;;;;;;4999596;28;20072;-76
2024/01/20 07:03:26;;;;;;;970.80;884.92;;;-0.80;99.90;;;;;;5001395;28;20041;-76
2024/01/20 07:05:52;;;;;;;978.10;889.65;;;-0.70;99.90;;;;;;4997054;28;20050;-77
2024/01/20 07:08:18;;;;;;;969.40;881.53;;;-1.00;99.90;;;;;;4998446;28;20034;-77
2024/01/20 07:10:44;;;;;;;964.97;879.55;;;0.10;99.90;;;;;;4987950;28;20050;-77
2024/01/20 07:13:10;;;;;;;932.22;852.10;;;-0.70;99.90;;;;;;4996535;28;20481;-78
2024/01/20 07:15:35;;;;;;;956.65;871.97;;;-1.10;99.90;;;;;;4993505;28;20053;-77
2024/01/20 07:18:03;;;;;;;998.97;907.78;;;0.20;99.90;;;;;;4997909;28;20128;-76
2024/01/20 07:20:29;;;;;;;1014.05;918.95;;;-1.10;99.90;;;;;;4991879;28;20066;-76
2024/01/20 07:22:55;;;;;;;1020.22;922.13;;;-1.10;99.90;;;;;;5000192;28;20111;-76
2024/01/20 07:25:20;;;;;;;937.95;856.47;;;-0.70;99.90;;;;;;4999124;28;20442;-76
2024/01/20 07:27:46;;;;;;;926.05;846.20;;;-1.10;99.90;;;;;;5034162;28;20084;-76
2024/01/20 07:30:12;;;;;;;964.30;878.42;;;-1.10;99.90;;;;;;5034009;28;20387;-76
2024/01/20 07:32:40;;;;;;;939.72;856.97;;;-1.10;99.90;;;;;;4987643;28;20057;-76
2024/01/20 07:35:07;;;;;;;977.38;887.83;;;-1.10;99.90;;;;;;4977600;28;20089;-78
2024/01/20 07:37:36;;;;;;;973.60;884.15;;;-1.00;99.90;;;;;;4980249;28;20077;-77
2024/01/20 07:40:03;;;;;;;1054.10;953.50;;;-1.00;99.90;;;;;;4971640;28;20042;-77
2024/01/20 07:42:28;;;;;;;1032.70;932.38;;;-0.50;99.90;;;;;;4977644;28;20080;-77
2024/01/20 07:44:54;;;;;;;1008.20;914.15;;;0.10;99.90;;;;;;4986210;28;20390;-77
2024/01/20 07:47:20;;;;;;;1013.90;918.13;;;-0.10;99.90;;;;;;4986197;28;20049;-77
2024/01/20 07:49:46;;;;;;;996.30;904.58;;;-0.90;99.90;;;;;;4992976;28;20446;-77
2024/01/20 07:52:11;;;;;;;999.67;907.22;;;0.30;99.90;;;;;;4994031;28;20457;-77
2024/01/20 07:54:37;;;;;;;948.03;864.38;;;-0.80;99.90;;;;;;5001278;28;20712;-77
2024/01/20 07:57:03;;;;;;;965.03;880.22;;;-0.80;99.90;;;;;;4986037;28;20050;-77
2024/01/20 07:59:29;;;;;;;986.17;897.85;;;-0.70;99.90;;;;;;4984079;28;20347;-77
2024/01/20 08:01:55;;;;;;;999.33;907.08;;;-0.70;99.90;;;;;;4973403;28;20051;-77
2024/01/20 08:04:21;;;;;;;1092.15;980.58;;;-0.10;99.90;;;;;;4995171;28;20042;-77
2024/01/20 08:06:47;;;;;;;1056.57;954.72;;;0.70;99.90;;;;;;5000057;28;20436;-77
2024/01/20 08:09:12;;;;;;;1004.85;910.90;;;0.80;99.90;;;;;;4996587;28;20050;-77
2024/01/20 08:11:38;;;;;;;976.72;888.22;;;1.00;99.90;;;;;;4992090;28;20047;-77
2024/01/20 08:14:04;;;;;;;1021.65;925.38;;;0.50;99.90;;;;;;4986355;28;20038;-77
2024/01/20 08:16:29;;;;;;;1005.28;912.85;;;0.70;99.90;;;;;;4985151;28;20054;-77
2024/01/20 08:18:55;;;;;;;973.83;886.63;;;1.10;99.90;;;;;;4979084;28;20098;-78
2024/01/20 08:21:22;;;;;;;935.90;856.13;;;0.00;99.90;;;;;;5001569;28;20153;-78
2024/01/20 08:23:47;;;;;;;979.38;891.22;;;1.20;99.90;;;;;;5002055;28;20050;-79
2024/01/20 08:26:13;;;;;;;986.25;894.47;;;0.00;99.90;;;;;;4997794;28;20046;-78
2024/01/20 08:28:39;;;;;;;1025.63;927.00;;;0.60;99.90;;;;;;4979369;28;20086;-78
2024/01/20 08:31:05;;;;;;;1014.33;917.35;;;0.70;99.90;;;;;;4980114;28;20081;-78
2024/01/20 08:33:31;;;;;;;945.22;861.97;;;1.20;99.90;;;;;;4980018;28;20055;-78
2024/01/20 08:35:57;;;;;;;958.38;874.25;;;1.10;99.90;;;;;;4982453;28;20119;-79
2024/01/20 08:38:23;;;;;;;967.35;880.28;;;1.00;99.90;;;;;;4998556;28;20046;-78
2024/01/20 08:40:48;;;;;;;907.03;831.45;;;0.50;99.90;;;;;;5028630;28;20103;-78
2024/01/20 08:43:15;;;;;;;897.17;821.30;;;0.10;99.90;;;;;;4999877;28;20050;-78
2024/01/20 08:45:41;;;;;;;878.05;805.05;;;0.80;99.90;;;;;;4994579;28;20116;-78
2024/01/20 08:48:08;;;;;;;905.42;828.72;;;0.90;99.90;;;;;;4984391;28;20054;-78
2024/01/20 08:50:33;;;;;;;870.38;798.95;;;0.90;99.90;;;;;;4983571;28;20073;-79
2024/01/20 08:52:59;;;;;;;905.72;830.42;;;0.80;99.90;;;;;;4985752;28;20482;-78
2024/01/20 08:55:25;;;;;;;948.30;865.08;;;0.70;99.90;;;;;;4985401;28;20379;-79
2024/01/20 08:57:50;;;;;;;899.63;824.00;;;0.30;99.90;;;;;;4986088;28;20057;-79
2024/01/20 09:00:17;;;;;;;923.50;844.75;;;0.30;99.90;;;;;;4986445;28;20045;-78
2024/01/20 09:02:43;;;;;;;863.53;792.50;;;0.40;99.90;;;;;;4985715;28;20050;-78
2024/01/20 09:05:10;;;;;;;929.17;849.53;;;1.10;99.90;;;;;;4995565;28;20156;-78
2024/01/20 09:07:36;;;;;;;921.40;842.13;;;1.10;99.90;;;;;;5002287;28;20065;-86
2024/01/20 09:10:03;;;;;;;891.20;817.13;;;0.80;99.90;;;;;;4948827;28;20039;-79
2024/01/20 09:12:29;;;;;;;906.88;830.15;;;0.40;99.90;;;;;;4991515;28;20065;-77
2024/01/20 09:14:56;;;;;;;883.40;809.85;;;1.80;99.90;;;;;;4994566;28;20038;-78
2024/01/20 09:17:21;;;;;;;881.00;809.25;;;0.50;99.90;;;;;;4994668;28;20077;-78
2024/01/20 09:19:47;;;;;;;853.42;784.00;;;0.50;99.90;;;;;;4996190;28;20493;-78
2024/01/20 09:22:13;;;;;;;856.78;787.72;;;0.50;99.90;;;;;;4997829;28;20057;-78
2024/01/20 09:24:39;;;;;;;889.45;815.28;;;1.00;99.90;;;;;;4998229;28;20080;-78
2024/01/20 09:27:05;;;;;;;841.88;772.90;;;1.60;99.90;;;;;;4985725;28;20056;-78
2024/01/20 09:29:31;;;;;;;761.95;702.83;;;0.60;99.90;;;;;;4988137;28;20093;-78
2024/01/20 09:31:57;;;;;;;837.42;768.63;;;1.00;99.90;;;;;;4991249;28;20049;-78
2024/01/20 09:34:22;;;;;;;918.58;841.15;;;0.60;99.90;;;;;;4983559;28;20117;-78
2024/01/20 09:36:50;;;;;;;925.10;843.90;;;1.30;99.90;;;;;;4994599;28;20070;-77
2024/01/20 09:39:16;;;;;;;685.30;633.53;;;0.70;99.90;;;;;;4980495;28;20050;-77
2024/01/20 09:41:42;;;;;;;624.65;578.15;;;1.20;99.90;;;;;;5001932;28;20166;-77
2024/01/20 09:44:11;;;;;;;689.17;637.15;;;0.80;99.90;;;;;;4983009;28;20121;-77
2024/01/20 09:46:37;;;;;;;600.97;555.63;;;1.20;99.90;;;;;;4992822;28;20083;-78
2024/01/20 09:49:03;;;;;;;652.20;602.97;;;0.80;99.90;;;;;;4992436;28;20139;-78
2024/01/20 09:51:29;;;;;;;596.60;552.38;;;1.50;99.90;;;;;;4997462;28;20062;-79
2024/01/20 09:53:59;;;;;;;543.97;504.38;;;0.90;99.90;;;;;;4976410;28;20045;-78
2024/01/20 09:56:26;;;;;;;569.15;527.72;;;0.90;99.90;;;;;;4980187;28;20054;-78
2024/01/20 09:58:55;;;;;;;578.55;536.22;;;0.90;99.90;;;;;;4982928;28;20054;-78
2024/01/20 10:01:22;;;;;;;564.88;523.35;;;1.90;99.90;;;;;;5001165;28;20049;-79
2024/01/20 10:03:48;;;;;;;572.60;530.45;;;2.20;99.90;;;;;;4983557;28;20513;-79
2024/01/20 10:06:13;;;;;;;541.45;502.73;;;1.80;99.90;;;;;;4981268;28;20046;-80
2024/01/20 10:08:39;;;;;;;570.17;528.60;;;1.20;99.90;;;;;;4983826;28;20118;-80
2024/01/20 10:11:05;;;;;;;563.85;522.72;;;1.30;99.90;;;;;;4986969;28;20493;-79
2024/01/20 10:13:31;;;;;;;537.78;498.23;;;1.70;99.90;;;;;;4992677;28;20050;-79
2024/01/20 10:15:57;;;;;;;458.55;426.98;;;2.30;99.90;;;;;;4982558;28;20468;-79
2024/01/20 10:18:23;;;;;;;473.83;440.52;;;2.10;99.90;;;;;;4985581;28;20104;-76
2024/01/20 10:20:49;;;;;;;449.17;417.20;;;1.20;99.90;;;;;;4991892;28;20477;-77
2024/01/20 10:23:14;;;;;;;479.77;445.95;;;2.20;99.90;;;;;;4991256;28;20073;-77
2024/01/20 10:25:40;;;;;;;472.17;439.40;;;1.80;99.90;;;;;;4993755;28;20049;-77
2024/01/20 10:28:07;;;;;;;499.25;463.40;;;1.40;99.90;;;;;;4990338;28;20050;-78
2024/01/20 10:30:33;;;;;;;541.42;501.95;;;2.10;99.90;;;;;;4987346;28;20513;-78
2024/01/20 10:32:59;;;;;;;469.35;436.77;;;1.30;99.90;;;;;;5018916;28;20092;-77
2024/01/20 10:35:25;;;;;;;433.42;403.95;;;1.90;99.90;;;;;;4981854;28;20082;-78
2024/01/20 10:37:54;;;;;;;535.50;496.20;;;1.70;99.90;;;;;;4987785;28;20675;-77
2024/01/20 10:40:20;;;;;;;556.00;514.55;;;1.90;99.90;;;;;;4995476;28;20481;-78
2024/01/20 10:42:50;;;;;;;538.08;498.15;;;1.40;99.90;;;;;;4985510;28;20057;-77
2024/01/20 10:45:17;;;;;;;540.03;500.30;;;2.60;99.90;;;;;;4991218;28;20076;-78
2024/01/20 10:47:58;;;;;;;507.73;470.95;;;1.40;99.90;;;;;;4981051;28;20081;-78
2024/01/20 10:50:25;;;;;;;479.52;445.92;;;1.40;99.90;;;;;;4982644;28;20448;-78
2024/01/20 10:52:51;;;;;;;530.15;492.33;;;1.30;99.90;;;;;;4988245;28;20051;-78
2024/01/20 10:55:18;;;;;;;420.33;391.60;;;1.40;99.90;;;;;;4988096;28;20127;-76
2024/01/20 10:57:46;;;;;;;434.20;404.83;;;1.40;99.90;;;;;;4978171;28;20058;-77
2024/01/20 11:00:13;;;;;;;497.33;461.20;;;1.40;99.90;;;;;;4981988;28;20511;-77
2024/01/20 11:02:40;;;;;;;438.90;409.17;;;1.40;99.90;;;;;;4986164;28;20061;-76
2024/01/20 11:05:25;;;;;;;399.23;371.50;;;1.80;99.90;;;;;;4999819;28;20108;-77
2024/01/20 11:07:56;;;;;;;499.63;462.25;;;1.40;99.90;;;;;;4984120;28;20732;-78
2024/01/20 11:10:23;;;;;;;430.02;400.02;;;1.40;99.90;;;;;;4967361;28;20061;-77
2024/01/20 11:13:06;;;;;;;395.83;368.52;;;1.50;99.90;;;;;;4984247;28;20375;-78
2024/01/20 11:15:33;;;;;;;482.67;447.65;;;1.90;99.90;;;;;;4975553;28;20050;-79
2024/01/20 11:18:00;;;;;;;521.85;483.20;;;2.10;99.90;;;;;;4991022;28;20391;-78
2024/01/20 11:20:27;;;;;;;395.40;368.90;;;2.30;99.90;;;;;;4970395;28;20438;-79
2024/01/20 11:22:55;;;;;;;473.48;439.95;;;1.50;99.90;;;;;;4986394;28;20262;-79
2024/01/20 11:25:22;;;;;;;503.92;467.85;;;2.30;99.90;;;;;;4976492;28;20379;-79
2024/01/20 11:27:51;;;;;;;458.73;426.70;;;1.80;99.90;;;;;;4980988;28;20573;-79
2024/01/20 11:30:26;;;;;;;417.13;388.60;;;1.70;99.90;;;;;;4979217;28;20509;-80
2024/01/20 11:32:52;;;;;;;512.88;475.55;;;2.40;99.90;;;;;;4997732;28;20037;-79
2024/01/20 11:35:18;;;;;;;403.65;376.58;;;1.60;99.90;;;;;;4989666;28;20133;-80
2024/01/20 11:37:44;;;;;;;475.63;442.00;;;2.00;99.90;;;;;;4989036;28;20129;-79
2024/01/20 11:40:10;;;;;;;408.27;380.10;;;1.60;99.90;;;;;;4996442;28;20050;-80
2024/01/20 11:42:38;;;;;;;378.75;352.67;;;1.60;99.90;;;;;;4982655;28;20061;-80
2024/01/20 11:45:04;;;;;;;405.98;376.88;;;1.90;99.90;;;;;;4974122;28;20260;-80
2024/01/20 11:47:31;;;;;;;357.27;332.85;;;1.60;99.90;;;;;;4963664;28;20513;-80
2024/01/20 11:49:57;;;;;;;429.83;399.58;;;1.60;99.90;;;;;;5001271;28;20030;-80
2024/01/20 11:52:24;;;;;;;391.30;364.90;;;1.80;99.90;;;;;;4993687;28;20054;-80
2024/01/20 11:54:50;;;;;;;357.00;332.27;;;1.60;99.90;;;;;;4984912;28;20500;-79
2024/01/20 11:57:23;;;;;;;365.20;339.98;;;2.00;99.90;;;;;;4977751;28;20054;-79
2024/01/20 11:59:49;;;;;;;439.80;408.90;;;1.60;99.90;;;;;;4975111;28;20057;-80
2024/01/20 12:02:16;;;;;;;475.35;439.92;;;2.20;99.90;;;;;;4980312;28;20038;-80
2024/01/20 12:04:42;;;;;;;450.55;417.92;;;1.70;99.90;;;;;;5018406;28;20571;-79
2024/01/20 12:07:09;;;;;;;436.73;406.33;;;1.60;99.90;;;;;;4981102;28;20054;-79